sensor_id;sensor_type;location;lat;lon;timestamp;pressure;altitude;pressure_sealevel;temperature;humidity
55277;BME280;41136;51.478;-2.610;2023-02-18T00:02:19;101494.90;;;9.40;100.00
55277;BME280;41136;51.478;-2.610;2023-02-18T00:04:44;101494.40;;;9.91;100.00
55277;BME280;41136;51.478;-2.610;2023-02-18T00:07:09;101491.24;;;10.36;100.00
55277;BME280;41136;51.478;-2.610;2023-02-18T00:09:37;101497.38;;;9.99;100.00
55277;BME280;41136;51.478;-2.610;2023-02-18T00:12:01;101493.36;;;9.98;100.00
55277;BME280;41136;51.478;-2.610;2023-02-18T00:14:26;101485.83;;;10.48;100.00
55277;BME280;41136;51.478;-2.610;2023-02-18T00:16:51;101494.17;;;10.22;100.00
55277;BME280;41136;51.478;-2.610;2023-02-18T00:19:18;101484.56;;;9.72;100.00
55277;BME280;41136;51.478;-2.610;2023-02-18T00:21:43;101490.02;;;9.93;100.00
55277;BME280;41136;51.478;-2.610;2023-02-18T00:24:08;101488.68;;;10.67;100.00
55277;BME280;41136;51.478;-2.610;2023-02-18T00:26:33;101488.43;;;10.82;100.00
55277;BME280;41136;51.478;-2.610;2023-02-18T00:28:58;101488.34;;;10.26;100.00
55277;BME280;41136;51.478;-2.610;2023-02-18T00:31:26;101485.53;;;10.30;100.00
55277;BME280;41136;51.478;-2.610;2023-02-18T00:33:49;101480.57;;;9.89;100.00
55277;BME280;41136;51.478;-2.610;2023-02-18T00:36:16;101486.96;;;10.37;100.00
55277;BME280;41136;51.478;-2.610;2023-02-18T00:38:43;101485.78;;;9.64;100.00
55277;BME280;41136;51.478;-2.610;2023-02-18T00:41:05;101476.75;;;9.35;100.00
55277;BME280;41136;51.478;-2.610;2023-02-18T00:43:30;101480.81;;;9.38;100.00
55277;BME280;41136;51.478;-2.610;2023-02-18T00:45:56;101479.72;;;9.59;100.00
55277;BME280;41136;51.478;-2.610;2023-02-18T00:48:21;101490.93;;;9.16;100.00
55277;BME280;41136;51.478;-2.610;2023-02-18T00:50:46;101488.84;;;9.32;100.00
55277;BME280;41136;51.478;-2.610;2023-02-18T00:53:12;101485.77;;;8.89;100.00
55277;BME280;41136;51.478;-2.610;2023-02-18T00:55:38;101485.74;;;8.86;100.00
55277;BME280;41136;51.478;-2.610;2023-02-18T00:58:02;101479.99;;;9.19;100.00
55277;BME280;41136;51.478;-2.610;2023-02-18T01:00:28;101486.15;;;9.79;100.00
55277;BME280;41136;51.478;-2.610;2023-02-18T01:02:53;101469.76;;;8.93;100.00
55277;BME280;41136;51.478;-2.610;2023-02-18T01:05:19;101463.86;;;9.02;100.00
55277;BME280;41136;51.478;-2.610;2023-02-18T01:09:49;101467.25;;;8.14;100.00
55277;BME280;41136;51.478;-2.610;2023-02-18T01:12:14;101462.89;;;8.83;100.00
55277;BME280;41136;51.478;-2.610;2023-02-18T01:14:40;101465.44;;;8.65;100.00
55277;BME280;41136;51.478;-2.610;2023-02-18T01:17:05;101470.53;;;8.39;100.00
55277;BME280;41136;51.478;-2.610;2023-02-18T01:19:30;101463.22;;;9.04;100.00
55277;BME280;41136;51.478;-2.610;2023-02-18T01:21:55;101471.29;;;8.54;100.00
55277;BME280;41136;51.478;-2.610;2023-02-18T01:24:21;101468.14;;;8.70;100.00
55277;BME280;41136;51.478;-2.610;2023-02-18T01:26:46;101472.10;;;8.64;100.00
55277;BME280;41136;51.478;-2.610;2023-02-18T01:29:11;101469.68;;;8.90;100.00
55277;BME280;41136;51.478;-2.610;2023-02-18T01:31:37;101466.48;;;8.30;100.00
55277;BME280;41136;51.478;-2.610;2023-02-18T01:34:02;101469.19;;;8.61;100.00
55277;BME280;41136;51.478;-2.610;2023-02-18T01:36:27;101463.60;;;8.82;100.00
55277;BME280;41136;51.478;-2.610;2023-02-18T01:38:53;101454.24;;;8.64;100.00
55277;BME280;41136;51.478;-2.610;2023-02-18T01:41:19;101449.61;;;8.09;100.00
55277;BME280;41136;51.478;-2.610;2023-02-18T01:43:43;101446.49;;;8.41;100.00
55277;BME280;41136;51.478;-2.610;2023-02-18T01:46:15;101441.84;;;8.75;100.00
55277;BME280;41136;51.478;-2.610;2023-02-18T01:48:38;101436.83;;;8.44;100.00
55277;BME280;41136;51.478;-2.610;2023-02-18T01:51:03;101444.73;;;8.89;100.00
55277;BME280;41136;51.478;-2.610;2023-02-18T01:53:27;101437.77;;;8.36;100.00
55277;BME280;41136;51.478;-2.610;2023-02-18T01:55:50;101432.61;;;8.58;100.00
55277;BME280;41136;51.478;-2.610;2023-02-18T01:58:16;101421.58;;;9.11;100.00
55277;BME280;41136;51.478;-2.610;2023-02-18T02:00:41;101432.66;;;9.05;100.00
55277;BME280;41136;51.478;-2.610;2023-02-18T02:03:06;101424.57;;;9.00;100.00
55277;BME280;41136;51.478;-2.610;2023-02-18T02:05:33;101424.26;;;8.83;100.00
55277;BME280;41136;51.478;-2.610;2023-02-18T02:07:58;101420.99;;;8.97;100.00
55277;BME280;41136;51.478;-2.610;2023-02-18T02:10:22;101421.49;;;9.41;100.00
55277;BME280;41136;51.478;-2.610;2023-02-18T02:12:55;101419.04;;;9.52;100.00
55277;BME280;41136;51.478;-2.610;2023-02-18T02:15:25;101415.17;;;9.49;100.00
55277;BME280;41136;51.478;-2.610;2023-02-18T02:17:46;101418.08;;;9.36;100.00
55277;BME280;41136;51.478;-2.610;2023-02-18T02:22:45;101405.44;;;9.83;100.00
55277;BME280;41136;51.478;-2.610;2023-02-18T02:25:07;101397.39;;;9.68;100.00
55277;BME280;41136;51.478;-2.610;2023-02-18T02:27:23;101403.15;;;9.60;100.00
55277;BME280;41136;51.478;-2.610;2023-02-18T02:32:21;101401.53;;;9.16;100.00
55277;BME280;41136;51.478;-2.610;2023-02-18T02:34:44;101417.80;;;9.48;100.00
55277;BME280;41136;51.478;-2.610;2023-02-18T02:37:07;101419.57;;;9.33;100.00
55277;BME280;41136;51.478;-2.610;2023-02-18T02:39:32;101415.88;;;9.43;100.00
55277;BME280;41136;51.478;-2.610;2023-02-18T02:41:59;101416.23;;;8.79;100.00
55277;BME280;41136;51.478;-2.610;2023-02-18T02:44:20;101409.00;;;8.67;100.00
55277;BME280;41136;51.478;-2.610;2023-02-18T02:46:44;101407.86;;;8.73;100.00
55277;BME280;41136;51.478;-2.610;2023-02-18T02:49:15;101402.08;;;9.20;100.00
55277;BME280;41136;51.478;-2.610;2023-02-18T02:51:37;101389.16;;;9.61;100.00
55277;BME280;41136;51.478;-2.610;2023-02-18T02:56:24;101377.06;;;9.71;100.00
55277;BME280;41136;51.478;-2.610;2023-02-18T02:58:56;101371.73;;;8.63;100.00
55277;BME280;41136;51.478;-2.610;2023-02-18T03:01:21;101377.01;;;8.82;100.00
55277;BME280;41136;51.478;-2.610;2023-02-18T03:03:52;101369.72;;;8.82;100.00
55277;BME280;41136;51.478;-2.610;2023-02-18T03:08:40;101355.82;;;9.39;100.00
55277;BME280;41136;51.478;-2.610;2023-02-18T03:11:00;101341.26;;;8.85;100.00
55277;BME280;41136;51.478;-2.610;2023-02-18T03:13:28;101343.97;;;8.73;100.00
55277;BME280;41136;51.478;-2.610;2023-02-18T03:15:52;101350.41;;;9.28;100.00
55277;BME280;41136;51.478;-2.610;2023-02-18T03:18:15;101349.40;;;8.91;100.00
55277;BME280;41136;51.478;-2.610;2023-02-18T03:20:42;101350.94;;;8.99;100.00
55277;BME280;41136;51.478;-2.610;2023-02-18T03:23:06;101355.33;;;8.68;100.00
55277;BME280;41136;51.478;-2.610;2023-02-18T03:25:29;101359.15;;;8.71;100.00
55277;BME280;41136;51.478;-2.610;2023-02-18T03:27:56;101359.32;;;8.53;100.00
55277;BME280;41136;51.478;-2.610;2023-02-18T03:30:23;101353.64;;;8.71;100.00
55277;BME280;41136;51.478;-2.610;2023-02-18T03:32:45;101349.58;;;8.87;100.00
55277;BME280;41136;51.478;-2.610;2023-02-18T03:35:13;101347.16;;;8.42;100.00
55277;BME280;41136;51.478;-2.610;2023-02-18T03:37:38;101349.69;;;8.98;100.00
55277;BME280;41136;51.478;-2.610;2023-02-18T03:40:00;101349.54;;;9.04;100.00
55277;BME280;41136;51.478;-2.610;2023-02-18T03:42:25;101346.63;;;8.37;100.00
55277;BME280;41136;51.478;-2.610;2023-02-18T03:44:50;101341.24;;;8.84;100.00
55277;BME280;41136;51.478;-2.610;2023-02-18T03:47:16;101338.78;;;8.98;100.00
55277;BME280;41136;51.478;-2.610;2023-02-18T03:49:41;101335.16;;;9.14;100.00
55277;BME280;41136;51.478;-2.610;2023-02-18T03:52:06;101328.77;;;9.75;100.00
55277;BME280;41136;51.478;-2.610;2023-02-18T03:54:32;101325.58;;;9.21;100.00
55277;BME280;41136;51.478;-2.610;2023-02-18T03:56:57;101309.02;;;9.20;100.00
55277;BME280;41136;51.478;-2.610;2023-02-18T03:59:22;101310.20;;;9.79;100.00
55277;BME280;41136;51.478;-2.610;2023-02-18T04:01:48;101315.73;;;10.17;100.00
55277;BME280;41136;51.478;-2.610;2023-02-18T04:04:13;101318.85;;;10.00;100.00
55277;BME280;41136;51.478;-2.610;2023-02-18T04:06:38;101325.34;;;9.22;100.00
55277;BME280;41136;51.478;-2.610;2023-02-18T04:09:04;101319.87;;;9.61;100.00
55277;BME280;41136;51.478;-2.610;2023-02-18T04:11:29;101320.02;;;10.07;100.00
55277;BME280;41136;51.478;-2.610;2023-02-18T04:13:54;101320.81;;;10.29;100.00
55277;BME280;41136;51.478;-2.610;2023-02-18T04:16:19;101328.04;;;9.53;100.00
55277;BME280;41136;51.478;-2.610;2023-02-18T04:18:45;101323.44;;;9.19;100.00
55277;BME280;41136;51.478;-2.610;2023-02-18T04:21:11;101316.42;;;9.63;100.00
55277;BME280;41136;51.478;-2.610;2023-02-18T04:23:36;101312.33;;;10.31;100.00
55277;BME280;41136;51.478;-2.610;2023-02-18T04:26:02;101310.10;;;10.29;100.00
55277;BME280;41136;51.478;-2.610;2023-02-18T04:28:27;101306.59;;;10.37;100.00
55277;BME280;41136;51.478;-2.610;2023-02-18T04:30:52;101306.08;;;9.74;100.00
55277;BME280;41136;51.478;-2.610;2023-02-18T04:33:17;101313.19;;;8.76;100.00
55277;BME280;41136;51.478;-2.610;2023-02-18T04:35:43;101306.89;;;9.53;100.00
55277;BME280;41136;51.478;-2.610;2023-02-18T04:38:09;101301.44;;;9.22;100.00
55277;BME280;41136;51.478;-2.610;2023-02-18T04:40:34;101301.22;;;9.58;100.00
55277;BME280;41136;51.478;-2.610;2023-02-18T04:42:59;101307.71;;;9.37;100.00
55277;BME280;41136;51.478;-2.610;2023-02-18T04:45:24;101301.42;;;9.24;100.00
55277;BME280;41136;51.478;-2.610;2023-02-18T04:47:49;101296.04;;;9.42;100.00
55277;BME280;41136;51.478;-2.610;2023-02-18T04:50:15;101306.50;;;9.65;100.00
55277;BME280;41136;51.478;-2.610;2023-02-18T04:52:40;101307.71;;;9.05;100.00
55277;BME280;41136;51.478;-2.610;2023-02-18T04:55:06;101298.11;;;9.08;100.00
55277;BME280;41136;51.478;-2.610;2023-02-18T04:57:31;101306.10;;;9.23;100.00
55277;BME280;41136;51.478;-2.610;2023-02-18T04:59:56;101310.34;;;9.16;100.00
55277;BME280;41136;51.478;-2.610;2023-02-18T05:02:21;101322.42;;;9.02;100.00
55277;BME280;41136;51.478;-2.610;2023-02-18T05:04:47;101319.58;;;8.82;100.00
55277;BME280;41136;51.478;-2.610;2023-02-18T05:07:12;101317.70;;;9.06;100.00
55277;BME280;41136;51.478;-2.610;2023-02-18T05:09:37;101301.75;;;9.23;100.00
55277;BME280;41136;51.478;-2.610;2023-02-18T05:12:03;101320.27;;;8.75;100.00
55277;BME280;41136;51.478;-2.610;2023-02-18T05:14:28;101317.49;;;8.59;100.00
55277;BME280;41136;51.478;-2.610;2023-02-18T05:16:54;101320.43;;;8.76;100.00
55277;BME280;41136;51.478;-2.610;2023-02-18T05:19:19;101316.09;;;8.39;100.00
55277;BME280;41136;51.478;-2.610;2023-02-18T05:21:45;101310.24;;;8.75;100.00
55277;BME280;41136;51.478;-2.610;2023-02-18T05:24:11;101322.71;;;8.42;100.00
55277;BME280;41136;51.478;-2.610;2023-02-18T05:26:36;101319.59;;;8.64;100.00
55277;BME280;41136;51.478;-2.610;2023-02-18T05:29:02;101323.91;;;8.62;100.00
55277;BME280;41136;51.478;-2.610;2023-02-18T05:31:27;101323.43;;;8.37;100.00
55277;BME280;41136;51.478;-2.610;2023-02-18T05:33:53;101327.83;;;8.41;100.00
55277;BME280;41136;51.478;-2.610;2023-02-18T05:36:18;101326.15;;;8.68;100.00
55277;BME280;41136;51.478;-2.610;2023-02-18T05:38:44;101328.42;;;9.17;100.00
55277;BME280;41136;51.478;-2.610;2023-02-18T05:42:43;101317.74;;;9.01;100.00
55277;BME280;41136;51.478;-2.610;2023-02-18T05:45:09;101318.37;;;9.26;100.00
55277;BME280;41136;51.478;-2.610;2023-02-18T05:47:34;101325.97;;;8.06;100.00
55277;BME280;41136;51.478;-2.610;2023-02-18T05:49:59;101326.24;;;8.60;100.00
55277;BME280;41136;51.478;-2.610;2023-02-18T05:52:25;101328.86;;;9.29;100.00
55277;BME280;41136;51.478;-2.610;2023-02-18T05:54:50;101308.19;;;9.19;100.00
55277;BME280;41136;51.478;-2.610;2023-02-18T05:57:15;101315.50;;;9.00;100.00
55277;BME280;41136;51.478;-2.610;2023-02-18T05:59:41;101318.26;;;8.45;100.00
55277;BME280;41136;51.478;-2.610;2023-02-18T06:02:06;101310.76;;;8.62;100.00
55277;BME280;41136;51.478;-2.610;2023-02-18T06:04:31;101315.53;;;9.05;100.00
55277;BME280;41136;51.478;-2.610;2023-02-18T06:06:57;101314.29;;;8.81;100.00
55277;BME280;41136;51.478;-2.610;2023-02-18T06:09:22;101312.42;;;9.16;100.00
55277;BME280;41136;51.478;-2.610;2023-02-18T06:11:47;101317.24;;;8.59;100.00
55277;BME280;41136;51.478;-2.610;2023-02-18T06:14:13;101309.06;;;8.61;100.00
55277;BME280;41136;51.478;-2.610;2023-02-18T06:16:38;101312.73;;;8.89;100.00
55277;BME280;41136;51.478;-2.610;2023-02-18T06:19:03;101303.28;;;9.19;100.00
55277;BME280;41136;51.478;-2.610;2023-02-18T06:21:29;101307.29;;;8.31;100.00
55277;BME280;41136;51.478;-2.610;2023-02-18T06:23:54;101293.28;;;8.84;100.00
55277;BME280;41136;51.478;-2.610;2023-02-18T06:26:19;101301.59;;;9.15;100.00
55277;BME280;41136;51.478;-2.610;2023-02-18T06:28:45;101303.56;;;8.98;100.00
55277;BME280;41136;51.478;-2.610;2023-02-18T06:31:10;101298.57;;;9.17;100.00
55277;BME280;41136;51.478;-2.610;2023-02-18T06:33:35;101293.78;;;9.51;100.00
55277;BME280;41136;51.478;-2.610;2023-02-18T06:36:04;101300.81;;;8.74;100.00
55277;BME280;41136;51.478;-2.610;2023-02-18T06:38:26;101304.19;;;8.84;100.00
55277;BME280;41136;51.478;-2.610;2023-02-18T06:40:51;101309.68;;;8.41;100.00
55277;BME280;41136;51.478;-2.610;2023-02-18T06:43:17;101305.29;;;8.25;100.00
55277;BME280;41136;51.478;-2.610;2023-02-18T06:45:42;101308.38;;;8.61;100.00
55277;BME280;41136;51.478;-2.610;2023-02-18T06:48:07;101307.89;;;8.82;100.00
55277;BME280;41136;51.478;-2.610;2023-02-18T06:50:33;101307.81;;;8.94;100.00
55277;BME280;41136;51.478;-2.610;2023-02-18T06:52:58;101303.45;;;8.72;100.00
55277;BME280;41136;51.478;-2.610;2023-02-18T06:55:24;101310.05;;;8.72;100.00
55277;BME280;41136;51.478;-2.610;2023-02-18T06:57:49;101318.85;;;9.34;100.00
55277;BME280;41136;51.478;-2.610;2023-02-18T07:00:15;101320.05;;;9.03;100.00
55277;BME280;41136;51.478;-2.610;2023-02-18T07:02:40;101314.45;;;9.55;100.00
55277;BME280;41136;51.478;-2.610;2023-02-18T07:05:05;101308.62;;;9.27;100.00
55277;BME280;41136;51.478;-2.610;2023-02-18T07:07:30;101320.53;;;8.28;100.00
55277;BME280;41136;51.478;-2.610;2023-02-18T07:09:55;101316.72;;;8.71;100.00
55277;BME280;41136;51.478;-2.610;2023-02-18T07:12:21;101311.73;;;9.04;100.00
55277;BME280;41136;51.478;-2.610;2023-02-18T07:14:46;101317.45;;;8.86;100.00
55277;BME280;41136;51.478;-2.610;2023-02-18T07:17:12;101321.52;;;8.63;100.00
55277;BME280;41136;51.478;-2.610;2023-02-18T07:19:37;101326.98;;;8.64;100.00
55277;BME280;41136;51.478;-2.610;2023-02-18T07:22:02;101329.61;;;7.99;100.00
55277;BME280;41136;51.478;-2.610;2023-02-18T07:24:28;101322.80;;;8.64;100.00
55277;BME280;41136;51.478;-2.610;2023-02-18T07:26:53;101329.91;;;8.22;100.00
55277;BME280;41136;51.478;-2.610;2023-02-18T07:29:18;101339.36;;;8.28;100.00
55277;BME280;41136;51.478;-2.610;2023-02-18T07:31:44;101330.43;;;8.37;100.00
55277;BME280;41136;51.478;-2.610;2023-02-18T07:34:09;101323.81;;;8.44;100.00
55277;BME280;41136;51.478;-2.610;2023-02-18T07:36:34;101337.77;;;7.99;100.00
55277;BME280;41136;51.478;-2.610;2023-02-18T07:39:00;101331.28;;;8.63;100.00
55277;BME280;41136;51.478;-2.610;2023-02-18T07:41:25;101334.70;;;8.69;100.00
55277;BME280;41136;51.478;-2.610;2023-02-18T07:43:50;101343.12;;;8.42;100.00
55277;BME280;41136;51.478;-2.610;2023-02-18T07:46:16;101334.05;;;8.75;100.00
55277;BME280;41136;51.478;-2.610;2023-02-18T07:48:41;101339.43;;;8.57;100.00
55277;BME280;41136;51.478;-2.610;2023-02-18T07:51:08;101345.20;;;8.72;100.00
55277;BME280;41136;51.478;-2.610;2023-02-18T07:53:32;101349.43;;;8.40;100.00
55277;BME280;41136;51.478;-2.610;2023-02-18T07:55:58;101335.56;;;8.73;100.00
55277;BME280;41136;51.478;-2.610;2023-02-18T07:58:25;101344.48;;;8.97;100.00
55277;BME280;41136;51.478;-2.610;2023-02-18T08:00:49;101340.10;;;8.81;100.00
55277;BME280;41136;51.478;-2.610;2023-02-18T08:03:15;101349.25;;;8.63;100.00
55277;BME280;41136;51.478;-2.610;2023-02-18T08:05:39;101355.51;;;9.29;100.00
55277;BME280;41136;51.478;-2.610;2023-02-18T08:08:05;101359.57;;;9.45;100.00
55277;BME280;41136;51.478;-2.610;2023-02-18T08:10:30;101363.33;;;8.34;100.00
55277;BME280;41136;51.478;-2.610;2023-02-18T08:12:55;101369.14;;;8.85;100.00
55277;BME280;41136;51.478;-2.610;2023-02-18T08:15:20;101364.76;;;8.79;100.00
55277;BME280;41136;51.478;-2.610;2023-02-18T08:17:46;101371.99;;;8.12;100.00
55277;BME280;41136;51.478;-2.610;2023-02-18T08:20:12;101366.69;;;9.27;100.00
55277;BME280;41136;51.478;-2.610;2023-02-18T08:22:37;101372.01;;;8.76;100.00
55277;BME280;41136;51.478;-2.610;2023-02-18T08:25:02;101370.71;;;8.21;100.00
55277;BME280;41136;51.478;-2.610;2023-02-18T08:27:27;101367.62;;;9.65;100.00
55277;BME280;41136;51.478;-2.610;2023-02-18T08:29:53;101362.91;;;9.14;100.00
55277;BME280;41136;51.478;-2.610;2023-02-18T08:32:18;101364.27;;;8.44;100.00
55277;BME280;41136;51.478;-2.610;2023-02-18T08:34:43;101360.45;;;9.17;100.00
55277;BME280;41136;51.478;-2.610;2023-02-18T08:37:09;101360.69;;;8.81;100.00
55277;BME280;41136;51.478;-2.610;2023-02-18T08:39:35;101359.04;;;8.82;100.00
55277;BME280;41136;51.478;-2.610;2023-02-18T08:42:00;101368.50;;;9.31;100.00
55277;BME280;41136;51.478;-2.610;2023-02-18T08:44:26;101356.07;;;8.93;100.00
55277;BME280;41136;51.478;-2.610;2023-02-18T08:46:51;101361.19;;;9.01;100.00
55277;BME280;41136;51.478;-2.610;2023-02-18T08:49:16;101365.34;;;9.60;100.00
55277;BME280;41136;51.478;-2.610;2023-02-18T08:51:42;101362.33;;;8.44;100.00
55277;BME280;41136;51.478;-2.610;2023-02-18T08:54:07;101368.81;;;8.88;100.00
55277;BME280;41136;51.478;-2.610;2023-02-18T08:56:32;101369.08;;;9.22;100.00
55277;BME280;41136;51.478;-2.610;2023-02-18T08:58:57;101377.71;;;9.48;100.00
55277;BME280;41136;51.478;-2.610;2023-02-18T09:01:23;101371.44;;;8.69;100.00
55277;BME280;41136;51.478;-2.610;2023-02-18T09:03:48;101381.04;;;8.92;100.00
55277;BME280;41136;51.478;-2.610;2023-02-18T09:06:13;101374.44;;;9.14;100.00
55277;BME280;41136;51.478;-2.610;2023-02-18T09:08:39;101384.20;;;8.63;100.00
55277;BME280;41136;51.478;-2.610;2023-02-18T09:11:04;101383.90;;;8.46;100.00
55277;BME280;41136;51.478;-2.610;2023-02-18T09:13:30;101375.52;;;8.48;100.00
55277;BME280;41136;51.478;-2.610;2023-02-18T09:15:57;101380.84;;;9.26;100.00
55277;BME280;41136;51.478;-2.610;2023-02-18T09:18:21;101388.58;;;8.67;100.00
55277;BME280;41136;51.478;-2.610;2023-02-18T09:20:46;101384.66;;;8.83;100.00
55277;BME280;41136;51.478;-2.610;2023-02-18T09:23:11;101389.39;;;8.73;100.00
55277;BME280;41136;51.478;-2.610;2023-02-18T09:25:38;101380.42;;;9.59;100.00
55277;BME280;41136;51.478;-2.610;2023-02-18T09:28:02;101379.25;;;8.80;100.00
55277;BME280;41136;51.478;-2.610;2023-02-18T09:30:27;101375.03;;;8.43;100.00
55277;BME280;41136;51.478;-2.610;2023-02-18T09:32:53;101374.72;;;9.16;100.00
55277;BME280;41136;51.478;-2.610;2023-02-18T09:35:18;101375.65;;;9.28;100.00
55277;BME280;41136;51.478;-2.610;2023-02-18T09:37:43;101371.45;;;8.54;100.00
55277;BME280;41136;51.478;-2.610;2023-02-18T09:40:20;101368.00;;;8.99;100.00
55277;BME280;41136;51.478;-2.610;2023-02-18T09:42:35;101368.71;;;8.82;100.00
55277;BME280;41136;51.478;-2.610;2023-02-18T09:45:02;101364.94;;;8.63;100.00
55277;BME280;41136;51.478;-2.610;2023-02-18T09:47:31;101367.13;;;9.11;100.00
55277;BME280;41136;51.478;-2.610;2023-02-18T09:49:54;101366.96;;;9.35;100.00
55277;BME280;41136;51.478;-2.610;2023-02-18T09:52:19;101369.59;;;9.05;100.00
55277;BME280;41136;51.478;-2.610;2023-02-18T09:54:41;101371.48;;;9.61;100.00
55277;BME280;41136;51.478;-2.610;2023-02-18T09:57:14;101366.07;;;10.21;100.00
55277;BME280;41136;51.478;-2.610;2023-02-18T09:59:32;101371.67;;;10.03;100.00
55277;BME280;41136;51.478;-2.610;2023-02-18T10:01:58;101366.91;;;10.00;100.00
55277;BME280;41136;51.478;-2.610;2023-02-18T10:04:26;101360.07;;;10.06;100.00
55277;BME280;41136;51.478;-2.610;2023-02-18T10:06:50;101364.66;;;10.23;100.00
55277;BME280;41136;51.478;-2.610;2023-02-18T10:09:18;101356.53;;;10.49;100.00
55277;BME280;41136;51.478;-2.610;2023-02-18T10:11:41;101370.65;;;9.87;100.00
55277;BME280;41136;51.478;-2.610;2023-02-18T10:14:08;101370.93;;;10.12;100.00
55277;BME280;41136;51.478;-2.610;2023-02-18T10:16:29;101369.21;;;9.77;100.00
55277;BME280;41136;51.478;-2.610;2023-02-18T10:18:57;101367.64;;;10.61;100.00
55277;BME280;41136;51.478;-2.610;2023-02-18T10:21:23;101368.70;;;9.60;100.00
55277;BME280;41136;51.478;-2.610;2023-02-18T10:23:52;101370.65;;;10.16;100.00
55277;BME280;41136;51.478;-2.610;2023-02-18T10:26:14;101376.90;;;10.01;100.00
55277;BME280;41136;51.478;-2.610;2023-02-18T10:28:37;101379.29;;;9.91;100.00
55277;BME280;41136;51.478;-2.610;2023-02-18T10:31:04;101376.67;;;11.16;100.00
55277;BME280;41136;51.478;-2.610;2023-02-18T10:33:33;101373.34;;;11.20;100.00
55277;BME280;41136;51.478;-2.610;2023-02-18T10:35:58;101375.99;;;10.32;100.00
55277;BME280;41136;51.478;-2.610;2023-02-18T10:38:25;101378.12;;;10.12;100.00
55277;BME280;41136;51.478;-2.610;2023-02-18T10:40:53;101372.58;;;10.45;100.00
55277;BME280;41136;51.478;-2.610;2023-02-18T10:43:14;101368.92;;;10.94;100.00
55277;BME280;41136;51.478;-2.610;2023-02-18T10:45:40;101366.11;;;10.35;100.00
55277;BME280;41136;51.478;-2.610;2023-02-18T10:48:09;101369.48;;;9.49;100.00
55277;BME280;41136;51.478;-2.610;2023-02-18T10:50:29;101370.32;;;9.39;100.00
55277;BME280;41136;51.478;-2.610;2023-02-18T10:52:51;101369.49;;;9.83;100.00
55277;BME280;41136;51.478;-2.610;2023-02-18T10:55:16;101382.99;;;9.62;100.00
55277;BME280;41136;51.478;-2.610;2023-02-18T10:57:46;101375.80;;;10.14;100.00
55277;BME280;41136;51.478;-2.610;2023-02-18T11:00:15;101377.40;;;10.20;100.00
55277;BME280;41136;51.478;-2.610;2023-02-18T11:02:31;101378.12;;;10.43;100.00
55277;BME280;41136;51.478;-2.610;2023-02-18T11:04:59;101375.59;;;10.77;100.00
55277;BME280;41136;51.478;-2.610;2023-02-18T11:07:28;101379.80;;;9.67;100.00
55277;BME280;41136;51.478;-2.610;2023-02-18T11:09:50;101388.48;;;9.86;100.00
55277;BME280;41136;51.478;-2.610;2023-02-18T11:12:16;101387.90;;;9.45;100.00
55277;BME280;41136;51.478;-2.610;2023-02-18T11:14:42;101379.31;;;9.77;100.00
55277;BME280;41136;51.478;-2.610;2023-02-18T11:17:15;101369.40;;;10.02;100.00
55277;BME280;41136;51.478;-2.610;2023-02-18T11:19:33;101379.49;;;9.73;100.00
55277;BME280;41136;51.478;-2.610;2023-02-18T11:22:05;101377.87;;;10.26;100.00
55277;BME280;41136;51.478;-2.610;2023-02-18T11:24:20;101377.78;;;10.09;100.00
55277;BME280;41136;51.478;-2.610;2023-02-18T11:26:46;101379.79;;;10.16;100.00
55277;BME280;41136;51.478;-2.610;2023-02-18T11:29:17;101386.83;;;10.28;100.00
55277;BME280;41136;51.478;-2.610;2023-02-18T11:31:40;101381.14;;;10.55;100.00
55277;BME280;41136;51.478;-2.610;2023-02-18T11:34:03;101378.85;;;10.23;100.00
55277;BME280;41136;51.478;-2.610;2023-02-18T11:36:29;101377.61;;;10.31;100.00
55277;BME280;41136;51.478;-2.610;2023-02-18T11:38:54;101381.78;;;9.97;100.00
55277;BME280;41136;51.478;-2.610;2023-02-18T11:41:20;101380.77;;;10.07;100.00
55277;BME280;41136;51.478;-2.610;2023-02-18T11:43:46;101381.21;;;9.93;100.00
55277;BME280;41136;51.478;-2.610;2023-02-18T11:46:09;101369.94;;;9.77;100.00
55277;BME280;41136;51.478;-2.610;2023-02-18T11:48:34;101381.56;;;10.27;100.00
55277;BME280;41136;51.478;-2.610;2023-02-18T11:51:00;101380.60;;;9.94;100.00
55277;BME280;41136;51.478;-2.610;2023-02-18T11:53:27;101378.68;;;9.97;100.00
55277;BME280;41136;51.478;-2.610;2023-02-18T11:55:53;101375.60;;;9.77;100.00
55277;BME280;41136;51.478;-2.610;2023-02-18T11:58:15;101374.47;;;9.32;100.00
55277;BME280;41136;51.478;-2.610;2023-02-18T12:00:42;101377.48;;;9.85;100.00
55277;BME280;41136;51.478;-2.610;2023-02-18T12:03:13;101377.78;;;9.81;100.00
55277;BME280;41136;51.478;-2.610;2023-02-18T12:05:32;101372.00;;;9.69;100.00
55277;BME280;41136;51.478;-2.610;2023-02-18T12:07:58;101371.55;;;10.16;100.00
55277;BME280;41136;51.478;-2.610;2023-02-18T12:10:26;101373.61;;;10.13;100.00
55277;BME280;41136;51.478;-2.610;2023-02-18T12:12:50;101378.13;;;9.70;100.00
55277;BME280;41136;51.478;-2.610;2023-02-18T12:15:16;101370.06;;;10.52;100.00
55277;BME280;41136;51.478;-2.610;2023-02-18T12:17:48;101366.33;;;10.28;100.00
55277;BME280;41136;51.478;-2.610;2023-02-18T12:20:17;101372.86;;;10.69;100.00
55277;BME280;41136;51.478;-2.610;2023-02-18T12:22:37;101383.26;;;10.68;100.00
55277;BME280;41136;51.478;-2.610;2023-02-18T12:25:05;101374.03;;;10.79;100.00
55277;BME280;41136;51.478;-2.610;2023-02-18T12:27:24;101367.79;;;10.40;100.00
55277;BME280;41136;51.478;-2.610;2023-02-18T12:30:00;101369.62;;;10.17;100.00
55277;BME280;41136;51.478;-2.610;2023-02-18T12:32:18;101376.98;;;10.92;100.00
55277;BME280;41136;51.478;-2.610;2023-02-18T12:34:43;101372.97;;;10.20;100.00
55277;BME280;41136;51.478;-2.610;2023-02-18T12:37:12;101366.02;;;10.03;100.00
55277;BME280;41136;51.478;-2.610;2023-02-18T12:39:37;101367.50;;;9.80;100.00
55277;BME280;41136;51.478;-2.610;2023-02-18T12:42:01;101370.41;;;9.96;100.00